Time;durP1;ratioP1;P1;durP2;ratioP2;P2;SDS_P1;SDS_P2;PMS_P1;PMS_P2;Temp;Humidity;BMP_temperature;BMP_pressure;BME280_temperature;BME280_humidity;BME280_pressure;Samples;Min_cycle;Max_cycle;Signal;HPM_P1;HPM_P2
2022/01/04 00:01:44;;;;;;;;;;;;;;;6.32;100.00;99800.22;5061770;28;20291;-73
2022/01/04 00:04:10;;;;;;;;;;;;;;;6.37;100.00;99800.66;5044990;28;19916;-73
2022/01/04 00:06:35;;;;;;;;;;;;;;;6.43;100.00;99791.44;5043563;28;19919;-73
2022/01/04 00:09:04;;;;;;;;;;;;;;;6.38;100.00;99791.84;5040492;28;19913;-74
2022/01/04 00:11:46;;;;;;;;;;;;;;;6.39;100.00;99782.16;5051768;28;19959;-72
2022/01/04 00:14:12;;;;;;;;;;;;;;;6.45;100.00;99777.22;5060827;28;19966;-71
2022/01/04 00:16:37;;;;;;;;;;;;;;;6.52;100.00;99782.78;5057882;28;20339;-73
2022/01/04 00:19:03;;;;;;;;;;;;;;;6.52;100.00;99777.53;5040796;28;20321;-73
2022/01/04 00:21:28;;;;;;;;;;;;;;;6.45;100.00;99773.78;5041121;28;19920;-73
2022/01/04 00:23:53;;;;;;;;;;;;;;;6.56;100.00;99750.03;5024852;28;19923;-74
2022/01/04 00:26:19;;;;;;;;;;;;;;;6.56;100.00;99755.28;5039452;28;19920;-74
2022/01/04 00:28:47;;;;;;;;;;;;;;;6.43;100.00;99741.59;5040205;28;19920;-73
2022/01/04 00:31:12;;;;;;;;;;;;;;;6.49;100.00;99733.19;5040781;28;19913;-73
2022/01/04 00:33:37;;;;;;;;;;;;;;;6.47;100.00;99724.63;5058944;28;19919;-73
2022/01/04 00:36:13;;;;;;;;;;;;;;;6.50;100.00;99720.94;5040507;28;19917;-73
2022/01/04 00:38:39;;;;;;;;;;;;;;;6.47;100.00;99720.22;5040367;28;19978;-73
2022/01/04 00:41:06;;;;;;;;;;;;;;;6.48;100.00;99713.19;5042795;28;19920;-72
2022/01/04 00:43:32;;;;;;;;;;;;;;;6.53;100.00;99718.03;5058449;28;19917;-72
2022/01/04 00:45:59;;;;;;;;;;;;;;;6.48;100.00;99711.38;5057672;28;19916;-74
2022/01/04 00:50:51;;;;;;;;;;;;;;;6.52;100.00;99705.84;5052382;28;19921;-73
2022/01/04 00:53:16;;;;;;;;;;;;;;;6.52;100.00;99700.63;5038624;28;19913;-73
2022/01/04 00:55:42;;;;;;;;;;;;;;;6.45;100.00;99693.31;5057682;28;19915;-73
2022/01/04 00:58:07;;;;;;;;;;;;;;;6.42;100.00;99700.59;5040611;28;19982;-73
2022/01/04 01:00:33;;;;;;;;;;;;;;;6.40;100.00;99692.03;5039612;28;19908;-73
2022/01/04 01:02:58;;;;;;;;;;;;;;;6.43;100.00;99689.97;5055943;28;19966;-73
2022/01/04 01:05:26;;;;;;;;;;;;;;;6.57;100.00;99691.41;5039773;28;20358;-73
2022/01/04 01:07:54;;;;;;;;;;;;;;;6.52;100.00;99693.59;5054538;28;19912;-73
2022/01/04 01:12:46;;;;;;;;;;;;;;;6.47;100.00;99688.75;5054863;28;20011;-73
2022/01/04 01:15:12;;;;;;;;;;;;;;;6.43;100.00;99687.38;5036897;28;19963;-73
2022/01/04 01:17:37;;;;;;;;;;;;;;;6.45;100.00;99687.25;5036834;28;19913;-73
2022/01/04 01:20:04;;;;;;;;;;;;;;;6.44;100.00;99673.28;5036334;28;19929;-74
2022/01/04 01:22:29;;;;;;;;;;;;;;;6.48;100.00;99673.84;5054760;28;20271;-73
2022/01/04 01:24:55;;;;;;;;;;;;;;;6.51;100.00;99676.19;5036188;28;19913;-73
2022/01/04 01:27:22;;;;;;;;;;;;;;;6.47;100.00;99677.41;5019324;28;19917;-73
2022/01/04 01:29:47;;;;;;;;;;;;;;;6.51;100.00;99672.75;5036465;28;19920;-73
2022/01/04 01:32:13;;;;;;;;;;;;;;;6.52;100.00;99666.53;5020152;28;19913;-73
2022/01/04 01:34:38;;;;;;;;;;;;;;;6.44;100.00;99661.97;5054486;28;20045;-73
2022/01/04 01:37:04;;;;;;;;;;;;;;;6.52;100.00;99658.66;5019474;28;20355;-73
2022/01/04 01:39:29;;;;;;;;;;;;;;;6.45;100.00;99659.22;5036553;28;19912;-74
2022/01/04 01:41:55;;;;;;;;;;;;;;;6.55;100.00;99664.47;5067219;28;19939;-73
2022/01/04 01:44:24;;;;;;;;;;;;;;;6.54;100.00;99654.94;5074800;28;20339;-73
2022/01/04 01:46:49;;;;;;;;;;;;;;;6.44;100.00;99649.66;5056838;28;19917;-73
2022/01/04 01:49:15;;;;;;;;;;;;;;;6.48;100.00;99645.00;5056429;28;19919;-73
2022/01/04 01:51:40;;;;;;;;;;;;;;;6.54;100.00;99636.59;5039410;28;19923;-73
2022/01/04 01:54:06;;;;;;;;;;;;;;;6.48;100.00;99634.50;5056477;28;19995;-74
2022/01/04 01:56:31;;;;;;;;;;;;;;;6.57;100.00;99628.44;5056702;28;19919;-73
2022/01/04 01:58:57;;;;;;;;;;;;;;;6.55;100.00;99629.56;5056702;28;20405;-74
2022/01/04 02:01:23;;;;;;;;;;;;;;;6.85;100.00;99633.84;5056617;28;20359;-74
2022/01/04 02:03:49;;;;;;;;;;;;;;;6.71;100.00;99619.34;5056874;28;20388;-74
2022/01/04 02:06:15;;;;;;;;;;;;;;;6.65;100.00;99612.84;5056731;28;19977;-74
2022/01/04 02:08:41;;;;;;;;;;;;;;;6.55;100.00;99612.00;5073563;28;19919;-74
2022/01/04 02:11:07;;;;;;;;;;;;;;;6.53;100.00;99603.44;5081419;28;19916;-74
2022/01/04 02:13:33;;;;;;;;;;;;;;;6.55;100.00;99603.31;5074051;28;19919;-73
2022/01/04 02:15:58;;;;;;;;;;;;;;;6.51;100.00;99596.69;5058642;28;19908;-73
2022/01/04 02:18:23;;;;;;;;;;;;;;;6.49;100.00;99594.19;5094660;28;19974;-73
2022/01/04 02:20:49;;;;;;;;;;;;;;;6.40;100.00;99592.38;5090768;28;19979;-73
2022/01/04 02:23:15;;;;;;;;;;;;;;;6.45;100.00;99598.06;5062609;28;20290;-73
2022/01/04 02:25:40;;;;;;;;;;;;;;;6.44;100.00;99586.72;5062429;28;19923;-73
2022/01/04 02:28:05;;;;;;;;;;;;;;;6.46;100.00;99587.44;5055163;28;19946;-73
2022/01/04 02:30:31;;;;;;;;;;;;;;;6.50;100.00;99576.69;5073222;28;19912;-74
2022/01/04 02:32:57;;;;;;;;;;;;;;;6.40;100.00;99577.47;5073190;28;19916;-73
2022/01/04 02:35:24;;;;;;;;;;;;;;;6.48;100.00;99575.00;5038769;28;19944;-74
2022/01/04 02:37:51;;;;;;;;;;;;;;;6.42;100.00;99575.53;5072872;28;19970;-74
2022/01/04 02:40:17;;;;;;;;;;;;;;;6.45;100.00;99571.84;5071553;28;19916;-74
2022/01/04 02:42:42;;;;;;;;;;;;;;;6.49;100.00;99565.34;5034602;28;20006;-74
2022/01/04 02:45:08;;;;;;;;;;;;;;;6.53;100.00;99565.91;5054892;28;19923;-73
2022/01/04 02:47:34;;;;;;;;;;;;;;;6.51;100.00;99562.59;5072738;28;19969;-75
2022/01/04 02:49:59;;;;;;;;;;;;;;;6.55;100.00;99553.50;5051729;28;19912;-74
2022/01/04 02:52:26;;;;;;;;;;;;;;;6.59;100.00;99545.19;5073154;28;19916;-74
2022/01/04 02:54:51;;;;;;;;;;;;;;;6.69;100.00;99543.38;5038221;28;20366;-74
2022/01/04 02:57:17;;;;;;;;;;;;;;;6.54;100.00;99541.31;5054623;28;19981;-73
2022/01/04 02:59:42;;;;;;;;;;;;;;;6.54;100.00;99542.19;5072247;28;19959;-73
2022/01/04 03:02:08;;;;;;;;;;;;;;;6.53;100.00;99545.75;5073120;28;19912;-74
2022/01/04 03:04:33;;;;;;;;;;;;;;;6.50;100.00;99546.03;5055146;28;19912;-74
2022/01/04 03:06:59;;;;;;;;;;;;;;;6.51;100.00;99541.59;5056951;28;19950;-73
2022/01/04 03:09:24;;;;;;;;;;;;;;;6.55;100.00;99524.63;5078817;28;19916;-73
2022/01/04 03:11:49;;;;;;;;;;;;;;;6.50;100.00;99517.19;5054474;28;19923;-74
2022/01/04 03:14:15;;;;;;;;;;;;;;;6.56;100.00;99516.59;5053739;28;20368;-74
2022/01/04 03:16:40;;;;;;;;;;;;;;;6.59;100.00;99510.28;5037401;28;19920;-73
2022/01/04 03:19:06;;;;;;;;;;;;;;;6.53;100.00;99519.53;5070440;28;19988;-74
2022/01/04 03:21:38;;;;;;;;;;;;;;;6.52;100.00;99512.63;5053975;28;19916;-74
2022/01/04 03:24:04;;;;;;;;;;;;;;;6.58;100.00;99513.84;5053865;28;20362;-74
2022/01/04 03:26:32;;;;;;;;;;;;;;;6.47;100.00;99502.56;5071631;28;19918;-73
2022/01/04 03:28:58;;;;;;;;;;;;;;;6.55;100.00;99488.75;5054162;28;20428;-74
2022/01/04 03:31:24;;;;;;;;;;;;;;;6.52;100.00;99483.78;5037871;28;19951;-72
2022/01/04 03:33:49;;;;;;;;;;;;;;;6.60;100.00;99478.66;5076157;28;20014;-72
2022/01/04 03:36:15;;;;;;;;;;;;;;;6.53;100.00;99481.97;5075682;28;19981;-73
2022/01/04 03:38:40;;;;;;;;;;;;;;;6.49;100.00;99476.19;5057714;28;19916;-73
2022/01/04 03:41:08;;;;;;;;;;;;;;;6.45;100.00;99474.81;5057746;28;19998;-73
2022/01/04 03:43:33;;;;;;;;;;;;;;;6.53;100.00;99466.25;5057528;28;20378;-74
2022/01/04 03:45:59;;;;;;;;;;;;;;;6.46;100.00;99458.09;5075311;28;19930;-73
2022/01/04 03:48:24;;;;;;;;;;;;;;;6.51;100.00;99465.56;5057440;28;19920;-73
2022/01/04 03:50:50;;;;;;;;;;;;;;;6.45;100.00;99456.47;5057506;28;20064;-73
2022/01/04 03:53:15;;;;;;;;;;;;;;;6.59;100.00;99452.59;5075613;28;19912;-73
2022/01/04 03:55:41;;;;;;;;;;;;;;;6.48;100.00;99450.94;5076115;28;19912;-73
2022/01/04 03:58:06;;;;;;;;;;;;;;;6.47;100.00;99437.00;5057047;28;19912;-74
2022/01/04 04:00:32;;;;;;;;;;;;;;;6.62;100.00;99429.50;5057192;28;19915;-74
2022/01/04 04:02:57;;;;;;;;;;;;;;;6.59;100.00;99427.16;5039256;28;19913;-73
2022/01/04 04:05:22;;;;;;;;;;;;;;;6.43;100.00;99414.63;5075700;28;19912;-72
2022/01/04 04:07:48;;;;;;;;;;;;;;;6.55;100.00;99409.25;5075446;28;19919;-73
2022/01/04 04:10:13;;;;;;;;;;;;;;;6.50;100.00;99411.47;5038599;28;19967;-72
2022/01/04 04:12:39;;;;;;;;;;;;;;;6.41;100.00;99421.81;5074981;28;20010;-73
2022/01/04 04:15:08;;;;;;;;;;;;;;;6.47;100.00;99415.16;5040593;28;19912;-73
2022/01/04 04:17:37;;;;;;;;;;;;;;;6.41;100.00;99415.75;5071829;28;19934;-75
2022/01/04 04:20:03;;;;;;;;;;;;;;;6.50;100.00;99414.09;5074916;28;20008;-72
2022/01/04 04:22:28;;;;;;;;;;;;;;;6.48;100.00;99419.47;5041078;28;19912;-72
2022/01/04 04:24:54;;;;;;;;;;;;;;;6.42;100.00;99422.63;5057829;28;19939;-72
2022/01/04 04:27:19;;;;;;;;;;;;;;;6.43;100.00;99422.50;5058194;28;19968;-72
2022/01/04 04:29:44;;;;;;;;;;;;;;;6.47;100.00;99418.66;5059649;28;19912;-73
2022/01/04 04:32:10;;;;;;;;;;;;;;;6.49;100.00;99405.38;5075805;28;19923;-73
2022/01/04 04:34:39;;;;;;;;;;;;;;;6.40;100.00;99395.72;5040895;28;19919;-73
2022/01/04 04:37:04;;;;;;;;;;;;;;;6.44;100.00;99391.88;5074432;28;19927;-72
2022/01/04 04:39:30;;;;;;;;;;;;;;;6.41;100.00;99389.53;5057867;28;19916;-73
2022/01/04 04:41:56;;;;;;;;;;;;;;;6.41;100.00;99389.53;5076341;28;19916;-73
2022/01/04 04:44:21;;;;;;;;;;;;;;;6.41;100.00;99387.72;5058708;28;20003;-73
2022/01/04 04:46:47;;;;;;;;;;;;;;;6.40;100.00;99380.00;5074583;28;19912;-73
2022/01/04 04:49:13;;;;;;;;;;;;;;;6.47;100.00;99374.06;5076535;28;19921;-73
2022/01/04 04:51:38;;;;;;;;;;;;;;;6.40;100.00;99375.56;5058056;28;20012;-73
2022/01/04 04:54:04;;;;;;;;;;;;;;;6.37;100.00;99372.44;5058322;28;20362;-73
2022/01/04 04:56:29;;;;;;;;;;;;;;;6.36;100.00;99368.13;5054860;28;19908;-73
2022/01/04 04:58:55;;;;;;;;;;;;;;;6.47;100.00;99357.47;5056755;28;20357;-73
2022/01/04 05:01:20;;;;;;;;;;;;;;;6.39;100.00;99366.06;5057788;28;20011;-73
2022/01/04 05:03:46;;;;;;;;;;;;;;;6.43;100.00;99377.09;5060669;28;20003;-72
2022/01/04 05:06:11;;;;;;;;;;;;;;;6.28;100.00;99389.81;5079975;28;19919;-74
2022/01/04 05:08:36;;;;;;;;;;;;;;;6.28;100.00;99377.53;5075673;28;19915;-74
2022/01/04 05:11:02;;;;;;;;;;;;;;;6.31;100.00;99360.69;5074886;28;19920;-73
2022/01/04 05:13:28;;;;;;;;;;;;;;;6.23;100.00;99350.91;5040835;28;19966;-73
2022/01/04 05:15:53;;;;;;;;;;;;;;;6.17;100.00;99348.03;5077890;28;19908;-72
2022/01/04 05:18:19;;;;;;;;;;;;;;;6.16;100.00;99344.59;5076302;28;20004;-73
2022/01/04 05:20:44;;;;;;;;;;;;;;;6.17;100.00;99338.38;5057580;28;19920;-73
2022/01/04 05:23:11;;;;;;;;;;;;;;;6.12;100.00;99347.63;5058289;28;19908;-73
2022/01/04 05:25:36;;;;;;;;;;;;;;;6.13;100.00;99325.69;5058153;28;19912;-73
2022/01/04 05:28:02;;;;;;;;;;;;;;;6.15;100.00;99332.44;5075704;28;20019;-73
2022/01/04 05:30:27;;;;;;;;;;;;;;;6.12;100.00;99332.72;5056734;28;19949;-72
2022/01/04 05:32:53;;;;;;;;;;;;;;;6.15;100.00;99337.69;5056579;28;19965;-73
2022/01/04 05:35:18;;;;;;;;;;;;;;;6.05;100.00;99334.25;5074370;28;19919;-72
2022/01/04 05:37:43;;;;;;;;;;;;;;;6.14;100.00;99328.19;5074102;28;21100;-73
2022/01/04 05:40:09;;;;;;;;;;;;;;;6.02;100.00;99330.13;5073938;28;20240;-73
2022/01/04 05:42:35;;;;;;;;;;;;;;;6.07;100.00;99325.28;5056576;28;19920;-72
2022/01/04 05:45:01;;;;;;;;;;;;;;;6.11;100.00;99327.63;5056365;28;20396;-73
2022/01/04 05:47:26;;;;;;;;;;;;;;;6.18;100.00;99320.88;5041030;28;19908;-73
2022/01/04 05:49:52;;;;;;;;;;;;;;;6.08;100.00;99323.50;5042102;28;20015;-72
2022/01/04 05:52:18;;;;;;;;;;;;;;;6.08;100.00;99320.88;5075435;28;19966;-73
2022/01/04 05:54:45;;;;;;;;;;;;;;;6.14;100.00;99312.47;5075854;28;19912;-74
2022/01/04 05:57:10;;;;;;;;;;;;;;;6.15;100.00;99311.47;5074775;28;19952;-73
2022/01/04 05:59:38;;;;;;;;;;;;;;;6.10;100.00;99323.38;5072765;28;19935;-74
2022/01/04 06:02:07;;;;;;;;;;;;;;;6.15;100.00;99318.50;5040515;28;20012;-74
2022/01/04 06:04:33;;;;;;;;;;;;;;;6.04;100.00;99317.72;5058248;28;20062;-73
2022/01/04 06:06:59;;;;;;;;;;;;;;;6.12;100.00;99316.19;5043158;28;19940;-74
2022/01/04 06:09:29;;;;;;;;;;;;;;;6.12;100.00;99308.31;5511940;22;21385;-79
2022/01/04 06:11:59;;;;;;;;;;;;;;;6.15;100.00;99315.91;5058727;28;19986;-76
2022/01/04 06:17:09;;;;;;;;;;;;;;;6.16;100.00;99325.44;5055752;28;19958;-77
2022/01/04 06:19:35;;;;;;;;;;;;;;;6.08;100.00;99310.38;5059068;28;19913;-74
2022/01/04 06:22:01;;;;;;;;;;;;;;;6.15;100.00;99308.03;5037300;28;19913;-75
2022/01/04 06:24:26;;;;;;;;;;;;;;;6.19;100.00;99312.84;5033817;28;19962;-75
2022/01/04 06:26:52;;;;;;;;;;;;;;;6.16;100.00;99314.94;5054612;28;19913;-76
2022/01/04 06:29:22;;;;;;;;;;;;;;;6.23;100.00;99303.75;5034915;28;19982;-76
2022/01/04 06:31:48;;;;;;;;;;;;;;;6.19;100.00;99304.97;5034008;28;19932;-76
2022/01/04 06:34:13;;;;;;;;;;;;;;;6.33;100.00;99308.13;5034336;28;19924;-77
2022/01/04 06:36:38;;;;;;;;;;;;;;;6.27;100.00;99299.06;5036599;28;20016;-79
2022/01/04 06:39:05;;;;;;;;;;;;;;;6.25;100.00;99298.38;5036728;28;19912;-80
2022/01/04 06:41:31;;;;;;;;;;;;;;;6.34;100.00;99280.97;5055371;28;19913;-80
2022/01/04 06:43:57;;;;;;;;;;;;;;;6.26;100.00;99292.13;5034237;28;19983;-80
2022/01/04 06:46:25;;;;;;;;;;;;;;;6.28;100.00;99288.41;5043319;28;20016;-79
2022/01/04 06:48:51;;;;;;;;;;;;;;;6.36;100.00;99285.09;5015112;28;19925;-79
2022/01/04 06:51:16;;;;;;;;;;;;;;;6.35;100.00;99279.97;5039899;28;19989;-79
2022/01/04 06:53:42;;;;;;;;;;;;;;;6.41;100.00;99268.91;5024746;28;20343;-75
2022/01/04 06:56:07;;;;;;;;;;;;;;;6.17;100.00;99275.47;5048179;28;19909;-76
2022/01/04 06:58:33;;;;;;;;;;;;;;;6.25;100.00;99266.91;5052144;28;19917;-76
2022/01/04 07:00:58;;;;;;;;;;;;;;;6.24;100.00;99262.63;5059799;28;19909;-77
2022/01/04 07:03:24;;;;;;;;;;;;;;;6.24;100.00;99258.19;5024033;28;19986;-74
2022/01/04 07:05:52;;;;;;;;;;;;;;;6.19;100.00;99263.03;5046299;28;19972;-78
2022/01/04 07:08:18;;;;;;;;;;;;;;;6.16;100.00;99254.66;5025692;28;19909;-78
2022/01/04 07:10:43;;;;;;;;;;;;;;;6.18;100.00;99265.84;5039255;28;19981;-77
2022/01/04 07:13:09;;;;;;;;;;;;;;;6.23;100.00;99259.19;5047579;28;19917;-78
2022/01/04 07:15:35;;;;;;;;;;;;;;;6.27;100.00;99262.34;5054316;28;19912;-77
2022/01/04 07:18:01;;;;;;;;;;;;;;;6.20;100.00;99249.00;5025324;28;20011;-76
2022/01/04 07:20:27;;;;;;;;;;;;;;;6.17;100.00;99246.63;5043406;28;19958;-78
2022/01/04 07:22:53;;;;;;;;;;;;;;;6.25;100.00;99243.31;5044132;28;19917;-79
2022/01/04 07:25:18;;;;;;;;;;;;;;;6.23;100.00;99245.25;5063336;28;19965;-79
2022/01/04 07:27:44;;;;;;;;;;;;;;;6.34;100.00;99250.31;5062116;28;19913;-81
2022/01/04 07:30:10;;;;;;;;;;;;;;;6.40;100.00;99246.28;5044368;28;20016;-78
2022/01/04 07:32:36;;;;;;;;;;;;;;;6.48;100.00;99249.00;5042678;28;19919;-78
2022/01/04 07:35:01;;;;;;;;;;;;;;;6.28;100.00;99248.25;5056507;28;20376;-78
2022/01/04 07:37:27;;;;;;;;;;;;;;;6.24;100.00;99252.94;5057390;28;20458;-78
2022/01/04 07:39:53;;;;;;;;;;;;;;;6.32;100.00;99240.94;5054821;28;19966;-78
2022/01/04 07:42:18;;;;;;;;;;;;;;;6.38;100.00;99249.06;5038833;28;19913;-75
2022/01/04 07:44:46;;;;;;;;;;;;;;;6.32;100.00;99252.25;5062107;28;19901;-78
2022/01/04 07:47:12;;;;;;;;;;;;;;;6.31;100.00;99255.81;5042687;28;20004;-75
2022/01/04 07:49:38;;;;;;;;;;;;;;;6.31;100.00;99249.75;5022367;28;19963;-80
2022/01/04 07:52:13;;;;;;;;;;;;;;;6.36;100.00;99255.41;5024453;28;20046;-79
2022/01/04 07:54:38;;;;;;;;;;;;;;;6.35;100.00;99259.81;5053843;28;19924;-78
2022/01/04 07:57:04;;;;;;;;;;;;;;;6.31;100.00;99247.13;5046019;23;19929;-77
2022/01/04 07:59:31;;;;;;;;;;;;;;;6.31;100.00;99258.44;5039366;28;19917;-78
2022/01/04 08:01:57;;;;;;;;;;;;;;;6.53;100.00;99256.44;5038558;28;19984;-79
2022/01/04 08:04:23;;;;;;;;;;;;;;;6.53;100.00;99248.56;5042877;28;19948;-78
2022/01/04 08:06:48;;;;;;;;;;;;;;;6.40;100.00;99260.19;5041547;28;19904;-79
2022/01/04 08:09:13;;;;;;;;;;;;;;;6.38;100.00;99256.94;5039629;28;19912;-78
2022/01/04 08:11:41;;;;;;;;;;;;;;;6.40;100.00;99247.09;5037830;28;20378;-81
2022/01/04 08:14:07;;;;;;;;;;;;;;;6.29;100.00;99252.56;5057886;28;19917;-79
2022/01/04 08:16:32;;;;;;;;;;;;;;;6.44;100.00;99248.47;5057773;28;19913;-78
2022/01/04 08:18:57;;;;;;;;;;;;;;;6.45;100.00;99251.94;5046005;28;19912;-78
2022/01/04 08:21:24;;;;;;;;;;;;;;;6.45;100.00;99259.81;5048301;28;19921;-79
2022/01/04 08:23:49;;;;;;;;;;;;;;;6.45;100.00;99252.75;5063107;28;20325;-77
2022/01/04 08:26:16;;;;;;;;;;;;;;;6.50;100.00;99257.56;5054903;28;20000;-76
2022/01/04 08:28:41;;;;;;;;;;;;;;;6.43;100.00;99264.34;5039145;28;19956;-75
2022/01/04 08:31:07;;;;;;;;;;;;;;;6.59;100.00;99272.41;5039027;28;19955;-75
2022/01/04 08:33:32;;;;;;;;;;;;;;;6.62;100.00;99279.16;5057405;28;20324;-75
2022/01/04 08:35:58;;;;;;;;;;;;;;;6.76;100.00;99275.22;5047989;28;19943;-77
2022/01/04 08:38:23;;;;;;;;;;;;;;;6.80;100.00;99277.41;5071397;28;19923;-79
2022/01/04 08:40:49;;;;;;;;;;;;;;;6.78;100.00;99284.59;5073788;28;19948;-80
2022/01/04 08:43:16;;;;;;;;;;;;;;;6.87;100.00;99280.28;5056317;28;20348;-80
2022/01/04 08:45:42;;;;;;;;;;;;;;;6.59;100.00;99280.28;5069971;28;20038;-79
2022/01/04 08:48:08;;;;;;;;;;;;;;;6.72;100.00;99274.69;5052400;28;19913;-78
2022/01/04 08:50:33;;;;;;;;;;;;;;;6.51;100.00;99279.34;5045781;28;19917;-80
2022/01/04 08:52:59;;;;;;;;;;;;;;;6.75;100.00;99279.66;5044673;28;19923;-80
2022/01/04 08:55:25;;;;;;;;;;;;;;;6.68;100.00;99284.66;5056553;28;19925;-77
2022/01/04 08:57:50;;;;;;;;;;;;;;;6.93;100.00;99286.72;5014282;28;19960;-78
2022/01/04 09:00:16;;;;;;;;;;;;;;;6.84;100.00;99278.78;5023470;28;19917;-80
2022/01/04 09:02:45;;;;;;;;;;;;;;;6.68;100.00;99268.91;5043497;28;20252;-81
2022/01/04 09:05:11;;;;;;;;;;;;;;;6.63;100.00;99281.66;5008883;28;19996;-80
2022/01/04 09:07:37;;;;;;;;;;;;;;;6.47;100.00;99273.56;5011353;28;19909;-81
2022/01/04 09:10:03;;;;;;;;;;;;;;;6.34;100.00;99271.28;5022870;28;19919;-78
2022/01/04 09:12:48;;;;;;;;;;;;;;;6.50;100.00;99269.84;5046618;28;19941;-79
2022/01/04 09:15:30;;;;;;;;;;;;;;;6.55;100.00;99278.91;5048813;28;20397;-81
2022/01/04 09:20:45;;;;;;;;;;;;;;;6.85;100.00;99290.91;5044284;28;20207;-79
2022/01/04 09:23:18;;;;;;;;;;;;;;;6.75;100.00;99294.59;5011357;28;20030;-81
2022/01/04 09:25:45;;;;;;;;;;;;;;;6.77;100.00;99285.59;5025276;28;19917;-79
2022/01/04 09:28:11;;;;;;;;;;;;;;;6.73;100.00;99284.22;5023814;28;19913;-81
2022/01/04 09:30:38;;;;;;;;;;;;;;;6.69;100.00;99285.47;5022793;28;19967;-78
2022/01/04 09:33:05;;;;;;;;;;;;;;;6.77;100.00;99295.22;5023474;28;19919;-79
2022/01/04 09:35:31;;;;;;;;;;;;;;;6.81;100.00;99291.34;5022618;28;19936;-77
2022/01/04 09:37:57;;;;;;;;;;;;;;;6.82;100.00;99290.41;5023648;28;19943;-82
2022/01/04 09:40:22;;;;;;;;;;;;;;;7.00;100.00;99286.00;5001701;28;19913;-78
2022/01/04 09:42:48;;;;;;;;;;;;;;;6.84;100.00;99301.56;5041963;28;19917;-77
2022/01/04 09:45:15;;;;;;;;;;;;;;;6.84;100.00;99291.91;5045633;28;19909;-76
2022/01/04 09:47:40;;;;;;;;;;;;;;;6.65;100.00;99302.47;5054801;28;19939;-78
2022/01/04 09:50:10;;;;;;;;;;;;;;;6.57;100.00;99307.63;5052690;28;19917;-78
2022/01/04 09:52:40;;;;;;;;;;;;;;;6.55;100.00;99309.56;5032115;28;19967;-80
2022/01/04 09:55:05;;;;;;;;;;;;;;;6.60;100.00;99308.16;5054378;28;19917;-78
2022/01/04 09:57:31;;;;;;;;;;;;;;;6.46;100.00;99324.38;5051319;28;19939;-80
2022/01/04 09:59:56;;;;;;;;;;;;;;;6.46;100.00;99316.50;5075107;28;19917;-79
2022/01/04 10:02:26;;;;;;;;;;;;;;;6.51;100.00;99309.03;5055377;28;19916;-79
2022/01/04 10:04:52;;;;;;;;;;;;;;;6.51;100.00;99310.81;5055928;28;19922;-76
2022/01/04 10:07:20;;;;;;;;;;;;;;;6.59;100.00;99318.81;5089309;28;19947;-78
2022/01/04 10:09:52;;;;;;;;;;;;;;;6.74;100.00;99317.34;5086768;28;19935;-79
2022/01/04 10:12:19;;;;;;;;;;;;;;;6.69;100.00;99314.34;5053984;28;19932;-80
2022/01/04 10:14:49;;;;;;;;;;;;;;;6.45;100.00;99320.94;5069581;28;19912;-80
2022/01/04 10:17:25;;;;;;;;;;;;;;;6.58;100.00;99317.16;5049126;28;19920;-81
2022/01/04 10:19:53;;;;;;;;;;;;;;;6.61;100.00;99317.69;5081931;28;19912;-80
2022/01/04 10:22:27;;;;;;;;;;;;;;;6.38;100.00;99322.47;5065075;28;19912;-80
2022/01/04 10:25:04;;;;;;;;;;;;;;;6.46;100.00;99322.56;5066146;28;20354;-80
2022/01/04 10:27:34;;;;;;;;;;;;;;;6.52;100.00;99318.56;5064600;28;19912;-79
2022/01/04 10:30:13;;;;;;;;;;;;;;;6.42;100.00;99320.38;5080113;28;19912;-79
2022/01/04 10:32:46;;;;;;;;;;;;;;;6.39;100.00;99326.75;5061836;28;19913;-80
2022/01/04 10:35:19;;;;;;;;;;;;;;;6.09;100.00;99325.16;5061878;28;19916;-80
2022/01/04 10:37:45;;;;;;;;;;;;;;;6.31;100.00;99329.22;5044279;28;19912;-79
2022/01/04 10:40:13;;;;;;;;;;;;;;;6.41;100.00;99322.19;5051090;28;20285;-79
2022/01/04 10:42:38;;;;;;;;;;;;;;;6.31;100.00;99326.59;5054158;28;19992;-79
2022/01/04 10:45:28;;;;;;;;;;;;;;;6.04;100.00;99327.34;5088225;28;19913;-80
2022/01/04 10:47:54;;;;;;;;;;;;;;;5.62;100.00;99332.88;5088086;28;19923;-79
2022/01/04 10:50:37;;;;;;;;;;;;;;;5.40;100.00;99336.59;5088314;28;19912;-80
2022/01/04 10:53:03;;;;;;;;;;;;;;;5.56;100.00;99336.03;5069849;28;19912;-79
2022/01/04 10:55:35;;;;;;;;;;;;;;;5.44;100.00;99335.34;5051581;28;19943;-81
2022/01/04 10:58:01;;;;;;;;;;;;;;;5.51;100.00;99339.06;5046320;28;19951;-75
2022/01/04 11:00:27;;;;;;;;;;;;;;;5.39;100.00;99332.31;5040067;28;20015;-78
2022/01/04 11:02:53;;;;;;;;;;;;;;;5.59;100.00;99343.66;5056452;28;19955;-77
2022/01/04 11:05:20;;;;;;;;;;;;;;;5.70;100.00;99347.91;5075108;28;20430;-78
2022/01/04 11:08:07;;;;;;;;;;;;;;;5.56;100.00;99336.88;5074560;28;20255;-77
2022/01/04 11:10:35;;;;;;;;;;;;;;;5.65;100.00;99364.03;5074403;28;19983;-77
2022/01/04 11:13:01;;;;;;;;;;;;;;;5.53;100.00;99367.75;5058258;28;19951;-76
2022/01/04 11:15:27;;;;;;;;;;;;;;;5.63;100.00;99358.09;5045981;28;19919;-78
2022/01/04 11:17:53;;;;;;;;;;;;;;;5.38;100.00;99369.91;5074639;28;19912;-78
2022/01/04 11:20:19;;;;;;;;;;;;;;;5.42;100.00;99368.69;5077477;28;19954;-78
2022/01/04 11:22:48;;;;;;;;;;;;;;;5.23;100.00;99379.97;5083272;28;19973;-78
2022/01/04 11:25:15;;;;;;;;;;;;;;;5.22;100.00;99381.75;5059842;28;19994;-76
2022/01/04 11:27:41;;;;;;;;;;;;;;;5.07;100.00;99380.47;5057133;28;19943;-79
2022/01/04 11:30:12;;;;;;;;;;;;;;;5.27;100.00;99388.34;5077438;28;19919;-76
2022/01/04 11:33:01;;;;;;;;;;;;;;;5.24;100.00;99392.06;5003588;28;19955;-80
2022/01/04 11:35:27;;;;;;;;;;;;;;;4.93;100.00;99399.16;5003216;28;19924;-79
2022/01/04 11:37:56;;;;;;;;;;;;;;;5.07;100.00;99413.66;5071480;22;19914;-80
2022/01/04 11:40:36;;;;;;;;;;;;;;;5.08;100.00;99399.59;5077615;23;19932;-79
2022/01/04 11:43:04;;;;;;;;;;;;;;;4.76;100.00;99408.44;5066177;28;19925;-83
2022/01/04 11:45:48;;;;;;;;;;;;;;;5.09;100.00;99407.34;5048732;28;19916;-78
2022/01/04 11:48:24;;;;;;;;;;;;;;;4.77;100.00;99410.91;5044528;28;19919;-78
2022/01/04 11:50:49;;;;;;;;;;;;;;;4.96;100.00;99420.63;5075459;28;19936;-77
2022/01/04 11:53:15;;;;;;;;;;;;;;;4.76;100.00;99419.72;5079425;28;19939;-80
2022/01/04 11:55:50;;;;;;;;;;;;;;;4.75;100.00;99425.09;5049568;28;19916;-80
2022/01/04 11:58:20;;;;;;;;;;;;;;;4.94;100.00;99424.34;5054011;28;20293;-80
2022/01/04 12:01:03;;;;;;;;;;;;;;;4.94;100.00;99435.63;5051743;28;19912;-77
2022/01/04 12:03:40;;;;;;;;;;;;;;;5.00;100.00;99432.50;5087211;28;19912;-81
2022/01/04 12:06:07;;;;;;;;;;;;;;;4.71;100.00;99437.59;5061434;28;19931;-83
2022/01/04 12:08:41;;;;;;;;;;;;;;;4.94;100.00;99447.88;5075549;28;19919;-81
2022/01/04 12:11:42;;;;;;;;;;;;;;;4.66;100.00;99441.56;5167100;23;19956;-81
2022/01/04 12:14:34;;;;;;;;;;;;;;;4.98;100.00;99436.22;4978287;28;19918;-83
2022/01/04 12:17:06;;;;;;;;;;;;;;;4.97;100.00;99424.06;5110043;23;19920;-83
2022/01/04 12:19:51;;;;;;;;;;;;;;;5.05;100.00;99432.09;5057887;28;19924;-81
2022/01/04 12:22:32;;;;;;;;;;;;;;;4.84;100.00;99444.38;5055540;28;20236;-80
2022/01/04 12:25:08;;;;;;;;;;;;;;;5.31;100.00;99429.00;5055026;28;20327;-79
2022/01/04 12:27:34;;;;;;;;;;;;;;;5.28;100.00;99426.66;5038149;28;20523;-79
2022/01/04 12:30:21;;;;;;;;;;;;;;;5.28;100.00;99432.72;5085243;28;19912;-81
2022/01/04 12:32:47;;;;;;;;;;;;;;;4.88;100.00;99437.94;5053321;28;19941;-81
2022/01/04 12:35:16;;;;;;;;;;;;;;;5.00;100.00;99440.34;5090731;28;19916;-82
2022/01/04 12:37:42;;;;;;;;;;;;;;;5.16;100.00;99439.03;5056454;28;19912;-80
2022/01/04 12:40:08;;;;;;;;;;;;;;;5.28;100.00;99437.13;5098000;22;19931;-75
2022/01/04 12:42:37;;;;;;;;;;;;;;;5.10;100.00;99435.13;5053936;28;19977;-80
2022/01/04 12:45:07;;;;;;;;;;;;;;;5.34;100.00;99439.25;5076117;28;19904;-81
2022/01/04 12:47:32;;;;;;;;;;;;;;;5.17;100.00;99436.25;5076678;28;19916;-82
2022/01/04 12:49:59;;;;;;;;;;;;;;;5.57;100.00;99424.94;5053520;28;19916;-82
2022/01/04 12:52:31;;;;;;;;;;;;;;;5.49;100.00;99414.31;5073589;28;19923;-84
2022/01/04 12:54:57;;;;;;;;;;;;;;;5.60;100.00;99426.47;5043489;28;19913;-83
2022/01/04 12:57:26;;;;;;;;;;;;;;;5.72;100.00;99419.31;5056393;28;20018;-78
2022/01/04 12:59:53;;;;;;;;;;;;;;;5.80;100.00;99411.59;5084350;28;19970;-76